KADC

Wadena Municipal Airport

Wadena, Minnesota, USA
METAR KADC 191455Z AUTO 24005KT 10SM CLR M02/M04 A2948 RMK AO2
Observed Flight Rules
Jan-19 @ 14:55 UTC (30 minutes ago) Visual Flight Rules
Wind Visibility Clouds
240° at 5 knots 10 miles
  • Clear skies
Temperatures Readings
Current -2°C / 28°F
Dewpoint -4°C / 25°F
Humidity 86%
Altimeter 29.48" Hg
Pressure 998 hPa
Elevation 418
METAR KADC 191455Z AUTO 24005KT 10SM CLR M02/M04 A2948 RMK AO2
Observed Flight Rules
Jan-19 @ 14:55 UTC
(30 minutes ago)
VFR
Wind Visibility
240° at 5 knots 10 miles
Clouds
  • Clear skies
Temperature Dewpoint
-2°C / 28°F -4°C / 25°F
Humidity Altimeter Pressure
86% 29.48" Hg 998 hPa